sensor_id;sensor_type;location;lat;lon;timestamp;temperature;humidity
17795;DHT22;9021;50.882;4.326;2023-04-15T00:00:37;12.10;99.90
17795;DHT22;9021;50.882;4.326;2023-04-15T00:03:02;12.60;99.90
17795;DHT22;9021;50.882;4.326;2023-04-15T00:05:30;12.80;99.90
17795;DHT22;9021;50.882;4.326;2023-04-15T00:07:56;12.40;99.90
17795;DHT22;9021;50.882;4.326;2023-04-15T00:10:21;12.40;99.90
17795;DHT22;9021;50.882;4.326;2023-04-15T00:12:47;12.40;99.90
17795;DHT22;9021;50.882;4.326;2023-04-15T00:15:13;13.30;99.90
17795;DHT22;9021;50.882;4.326;2023-04-15T00:17:38;12.80;99.90
17795;DHT22;9021;50.882;4.326;2023-04-15T00:20:04;12.70;99.90
17795;DHT22;9021;50.882;4.326;2023-04-15T00:22:31;12.20;99.90
17795;DHT22;9021;50.882;4.326;2023-04-15T00:27:23;12.70;99.90
17795;DHT22;9021;50.882;4.326;2023-04-15T00:29:49;12.90;99.90
17795;DHT22;9021;50.882;4.326;2023-04-15T00:32:14;12.90;99.90
17795;DHT22;9021;50.882;4.326;2023-04-15T00:37:08;12.80;99.90
17795;DHT22;9021;50.882;4.326;2023-04-15T00:42:01;12.10;99.90
17795;DHT22;9021;50.882;4.326;2023-04-15T00:44:28;12.80;99.90
17795;DHT22;9021;50.882;4.326;2023-04-15T00:49:20;12.30;99.90
17795;DHT22;9021;50.882;4.326;2023-04-15T00:51:45;13.00;99.90
17795;DHT22;9021;50.882;4.326;2023-04-15T00:54:11;12.20;99.90
17795;DHT22;9021;50.882;4.326;2023-04-15T00:56:38;12.70;99.90
17795;DHT22;9021;50.882;4.326;2023-04-15T00:59:04;12.20;99.90
17795;DHT22;9021;50.882;4.326;2023-04-15T01:01:33;11.80;99.90
17795;DHT22;9021;50.882;4.326;2023-04-15T01:03:59;12.60;99.90
17795;DHT22;9021;50.882;4.326;2023-04-15T01:08:53;12.70;99.90
17795;DHT22;9021;50.882;4.326;2023-04-15T01:11:19;11.70;99.90
17795;DHT22;9021;50.882;4.326;2023-04-15T01:13:46;12.20;99.90
17795;DHT22;9021;50.882;4.326;2023-04-15T01:16:13;12.20;99.90
17795;DHT22;9021;50.882;4.326;2023-04-15T01:18:39;12.30;99.90
17795;DHT22;9021;50.882;4.326;2023-04-15T01:21:05;11.90;99.90
17795;DHT22;9021;50.882;4.326;2023-04-15T01:23:34;12.50;99.90
17795;DHT22;9021;50.882;4.326;2023-04-15T01:28:28;12.10;99.90
17795;DHT22;9021;50.882;4.326;2023-04-15T01:31:13;12.20;99.90
17795;DHT22;9021;50.882;4.326;2023-04-15T01:33:40;12.10;99.90
17795;DHT22;9021;50.882;4.326;2023-04-15T01:36:08;12.20;99.90
17795;DHT22;9021;50.882;4.326;2023-04-15T01:38:34;12.10;99.90
17795;DHT22;9021;50.882;4.326;2023-04-15T01:41:01;11.40;99.90
17795;DHT22;9021;50.882;4.326;2023-04-15T01:43:27;11.70;99.90
17795;DHT22;9021;50.882;4.326;2023-04-15T01:45:52;12.00;99.90
17795;DHT22;9021;50.882;4.326;2023-04-15T01:48:18;12.20;99.90
17795;DHT22;9021;50.882;4.326;2023-04-15T01:50:44;11.90;99.90
17795;DHT22;9021;50.882;4.326;2023-04-15T01:53:10;12.40;99.90
17795;DHT22;9021;50.882;4.326;2023-04-15T01:55:36;11.80;99.90
17795;DHT22;9021;50.882;4.326;2023-04-15T01:58:02;11.80;99.90
17795;DHT22;9021;50.882;4.326;2023-04-15T02:00:28;12.10;99.90
17795;DHT22;9021;50.882;4.326;2023-04-15T02:02:54;11.80;99.90
17795;DHT22;9021;50.882;4.326;2023-04-15T02:05:20;12.20;99.90
17795;DHT22;9021;50.882;4.326;2023-04-15T02:07:45;11.90;99.90
17795;DHT22;9021;50.882;4.326;2023-04-15T02:10:11;11.50;99.90
17795;DHT22;9021;50.882;4.326;2023-04-15T02:15:07;11.90;99.90
17795;DHT22;9021;50.882;4.326;2023-04-15T02:17:34;11.70;99.90
17795;DHT22;9021;50.882;4.326;2023-04-15T02:20:00;12.00;99.90
17795;DHT22;9021;50.882;4.326;2023-04-15T02:22:26;12.00;99.90
17795;DHT22;9021;50.882;4.326;2023-04-15T02:24:52;11.90;99.90
17795;DHT22;9021;50.882;4.326;2023-04-15T02:29:44;12.10;99.90
17795;DHT22;9021;50.882;4.326;2023-04-15T02:32:10;12.40;99.90
17795;DHT22;9021;50.882;4.326;2023-04-15T02:34:36;11.70;99.90
17795;DHT22;9021;50.882;4.326;2023-04-15T02:37:08;11.60;99.90
17795;DHT22;9021;50.882;4.326;2023-04-15T02:39:34;11.50;99.90
17795;DHT22;9021;50.882;4.326;2023-04-15T02:42:00;12.50;99.90
17795;DHT22;9021;50.882;4.326;2023-04-15T02:44:27;11.80;99.90
17795;DHT22;9021;50.882;4.326;2023-04-15T02:46:53;11.60;99.90
17795;DHT22;9021;50.882;4.326;2023-04-15T02:49:19;11.60;99.90
17795;DHT22;9021;50.882;4.326;2023-04-15T02:51:45;11.80;99.90
17795;DHT22;9021;50.882;4.326;2023-04-15T02:54:25;11.70;99.90
17795;DHT22;9021;50.882;4.326;2023-04-15T02:56:53;11.70;99.90
17795;DHT22;9021;50.882;4.326;2023-04-15T02:59:20;11.50;99.90
17795;DHT22;9021;50.882;4.326;2023-04-15T03:01:46;11.70;99.90
17795;DHT22;9021;50.882;4.326;2023-04-15T03:04:11;11.40;99.90
17795;DHT22;9021;50.882;4.326;2023-04-15T03:06:37;13.00;99.90
17795;DHT22;9021;50.882;4.326;2023-04-15T03:09:03;12.00;99.90
17795;DHT22;9021;50.882;4.326;2023-04-15T03:13:56;11.50;99.90
17795;DHT22;9021;50.882;4.326;2023-04-15T03:16:21;11.60;99.90
17795;DHT22;9021;50.882;4.326;2023-04-15T03:18:47;11.50;99.90
17795;DHT22;9021;50.882;4.326;2023-04-15T03:26:04;11.70;99.90
17795;DHT22;9021;50.882;4.326;2023-04-15T03:28:30;11.40;99.90
17795;DHT22;9021;50.882;4.326;2023-04-15T03:33:23;12.00;99.90
17795;DHT22;9021;50.882;4.326;2023-04-15T03:35:50;11.20;99.90
17795;DHT22;9021;50.882;4.326;2023-04-15T03:38:16;11.20;99.90
17795;DHT22;9021;50.882;4.326;2023-04-15T03:40:42;11.50;99.90
17795;DHT22;9021;50.882;4.326;2023-04-15T03:43:08;11.20;99.90
17795;DHT22;9021;50.882;4.326;2023-04-15T03:45:33;11.70;99.90
17795;DHT22;9021;50.882;4.326;2023-04-15T03:47:59;11.50;99.90
17795;DHT22;9021;50.882;4.326;2023-04-15T03:50:25;11.10;99.90
17795;DHT22;9021;50.882;4.326;2023-04-15T04:00:09;12.00;99.90
17795;DHT22;9021;50.882;4.326;2023-04-15T04:05:01;11.60;99.90
17795;DHT22;9021;50.882;4.326;2023-04-15T04:12:19;11.10;99.90
17795;DHT22;9021;50.882;4.326;2023-04-15T04:14:44;11.10;99.90
17795;DHT22;9021;50.882;4.326;2023-04-15T04:17:10;11.10;99.90
17795;DHT22;9021;50.882;4.326;2023-04-15T04:22:02;11.20;99.90
17795;DHT22;9021;50.882;4.326;2023-04-15T04:29:20;11.00;99.90
17795;DHT22;9021;50.882;4.326;2023-04-15T04:34:13;10.90;99.90
17795;DHT22;9021;50.882;4.326;2023-04-15T04:36:39;10.80;99.90
17795;DHT22;9021;50.882;4.326;2023-04-15T04:39:04;10.60;99.90
17795;DHT22;9021;50.882;4.326;2023-04-15T04:43:56;11.00;99.90
17795;DHT22;9021;50.882;4.326;2023-04-15T04:48:48;10.80;99.90
17795;DHT22;9021;50.882;4.326;2023-04-15T04:51:14;10.80;99.90
17795;DHT22;9021;50.882;4.326;2023-04-15T04:53:40;11.50;99.90
17795;DHT22;9021;50.882;4.326;2023-04-15T04:58:33;11.20;99.90
17795;DHT22;9021;50.882;4.326;2023-04-15T05:00:58;11.30;99.90
17795;DHT22;9021;50.882;4.326;2023-04-15T05:08:16;10.70;99.90
17795;DHT22;9021;50.882;4.326;2023-04-15T05:10:42;11.40;99.90
17795;DHT22;9021;50.882;4.326;2023-04-15T05:15:34;11.10;99.90
17795;DHT22;9021;50.882;4.326;2023-04-15T05:18:01;10.70;99.90
17795;DHT22;9021;50.882;4.326;2023-04-15T05:20:27;11.10;99.90
17795;DHT22;9021;50.882;4.326;2023-04-15T05:22:52;10.70;99.90
17795;DHT22;9021;50.882;4.326;2023-04-15T05:25:18;10.80;99.90
17795;DHT22;9021;50.882;4.326;2023-04-15T05:27:44;11.10;99.90
17795;DHT22;9021;50.882;4.326;2023-04-15T05:30:09;10.40;99.90
17795;DHT22;9021;50.882;4.326;2023-04-15T05:35:08;10.50;99.90
17795;DHT22;9021;50.882;4.326;2023-04-15T05:37:33;10.70;99.90
17795;DHT22;9021;50.882;4.326;2023-04-15T05:39:59;10.90;99.90
17795;DHT22;9021;50.882;4.326;2023-04-15T05:42:25;11.00;99.90
17795;DHT22;9021;50.882;4.326;2023-04-15T05:44:50;11.50;99.90
17795;DHT22;9021;50.882;4.326;2023-04-15T05:47:16;11.30;99.90
17795;DHT22;9021;50.882;4.326;2023-04-15T05:49:42;11.20;99.90
17795;DHT22;9021;50.882;4.326;2023-04-15T05:52:07;10.50;99.90
17795;DHT22;9021;50.882;4.326;2023-04-15T05:54:33;10.80;99.90
17795;DHT22;9021;50.882;4.326;2023-04-15T05:56:58;10.90;99.90
17795;DHT22;9021;50.882;4.326;2023-04-15T05:59:24;10.70;99.90
17795;DHT22;9021;50.882;4.326;2023-04-15T06:01:50;10.80;99.90
17795;DHT22;9021;50.882;4.326;2023-04-15T06:04:16;11.00;99.90
17795;DHT22;9021;50.882;4.326;2023-04-15T06:06:42;11.10;99.90
17795;DHT22;9021;50.882;4.326;2023-04-15T06:09:07;11.30;99.90
17795;DHT22;9021;50.882;4.326;2023-04-15T06:13:59;11.30;99.90
17795;DHT22;9021;50.882;4.326;2023-04-15T06:16:25;11.70;99.90
17795;DHT22;9021;50.882;4.326;2023-04-15T06:18:50;11.60;99.90
17795;DHT22;9021;50.882;4.326;2023-04-15T06:21:16;12.00;99.90
17795;DHT22;9021;50.882;4.326;2023-04-15T06:23:41;11.90;99.90
17795;DHT22;9021;50.882;4.326;2023-04-15T06:26:07;11.80;99.90
17795;DHT22;9021;50.882;4.326;2023-04-15T06:28:33;12.40;99.90
17795;DHT22;9021;50.882;4.326;2023-04-15T06:30:58;12.30;99.90
17795;DHT22;9021;50.882;4.326;2023-04-15T06:33:24;11.90;99.90
17795;DHT22;9021;50.882;4.326;2023-04-15T06:35:50;11.90;99.90
17795;DHT22;9021;50.882;4.326;2023-04-15T06:38:15;12.00;99.90
17795;DHT22;9021;50.882;4.326;2023-04-15T06:40:41;12.00;99.90
17795;DHT22;9021;50.882;4.326;2023-04-15T06:43:07;12.50;99.90
17795;DHT22;9021;50.882;4.326;2023-04-15T06:47:59;12.50;99.90
17795;DHT22;9021;50.882;4.326;2023-04-15T06:50:25;13.20;99.90
17795;DHT22;9021;50.882;4.326;2023-04-15T06:52:51;13.30;99.90
17795;DHT22;9021;50.882;4.326;2023-04-15T06:57:43;14.10;99.90
17795;DHT22;9021;50.882;4.326;2023-04-15T07:00:09;15.10;99.90
17795;DHT22;9021;50.882;4.326;2023-04-15T07:02:36;15.20;99.90
17795;DHT22;9021;50.882;4.326;2023-04-15T07:05:02;16.30;99.90
17795;DHT22;9021;50.882;4.326;2023-04-15T07:07:27;16.50;99.90
17795;DHT22;9021;50.882;4.326;2023-04-15T07:09:53;17.30;99.90
17795;DHT22;9021;50.882;4.326;2023-04-15T07:12:19;18.10;98.20
17795;DHT22;9021;50.882;4.326;2023-04-15T07:14:45;18.70;96.60
17795;DHT22;9021;50.882;4.326;2023-04-15T07:17:10;19.40;94.90
17795;DHT22;9021;50.882;4.326;2023-04-15T07:19:36;20.70;94.10
17795;DHT22;9021;50.882;4.326;2023-04-15T07:22:02;21.00;91.90
17795;DHT22;9021;50.882;4.326;2023-04-15T07:24:28;21.60;90.80
17795;DHT22;9021;50.882;4.326;2023-04-15T07:26:54;22.50;87.90
17795;DHT22;9021;50.882;4.326;2023-04-15T07:29:23;23.20;85.40
17795;DHT22;9021;50.882;4.326;2023-04-15T07:31:49;24.20;83.50
17795;DHT22;9021;50.882;4.326;2023-04-15T07:34:15;24.90;81.10
17795;DHT22;9021;50.882;4.326;2023-04-15T07:36:41;26.10;80.20
17795;DHT22;9021;50.882;4.326;2023-04-15T07:39:07;27.20;75.90
17795;DHT22;9021;50.882;4.326;2023-04-15T07:41:32;27.70;73.40
17795;DHT22;9021;50.882;4.326;2023-04-15T07:43:58;28.50;73.00
17795;DHT22;9021;50.882;4.326;2023-04-15T07:46:24;28.70;72.50
17795;DHT22;9021;50.882;4.326;2023-04-15T07:48:51;29.50;70.60
17795;DHT22;9021;50.882;4.326;2023-04-15T07:51:18;29.90;68.50
17795;DHT22;9021;50.882;4.326;2023-04-15T07:53:45;30.00;68.00
17795;DHT22;9021;50.882;4.326;2023-04-15T07:56:11;29.70;66.90
17795;DHT22;9021;50.882;4.326;2023-04-15T07:58:37;29.00;66.90
17795;DHT22;9021;50.882;4.326;2023-04-15T08:01:03;29.10;66.70
17795;DHT22;9021;50.882;4.326;2023-04-15T08:03:29;29.10;67.00
17795;DHT22;9021;50.882;4.326;2023-04-15T08:05:55;28.50;66.10
17795;DHT22;9021;50.882;4.326;2023-04-15T08:08:20;27.60;66.80
17795;DHT22;9021;50.882;4.326;2023-04-15T08:10:46;27.10;67.70
17795;DHT22;9021;50.882;4.326;2023-04-15T08:13:12;26.60;67.60
17795;DHT22;9021;50.882;4.326;2023-04-15T08:15:38;26.40;68.00
17795;DHT22;9021;50.882;4.326;2023-04-15T08:18:03;26.10;68.00
17795;DHT22;9021;50.882;4.326;2023-04-15T08:20:29;25.50;69.10
17795;DHT22;9021;50.882;4.326;2023-04-15T08:22:55;24.90;70.00
17795;DHT22;9021;50.882;4.326;2023-04-15T08:25:20;24.10;71.00
17795;DHT22;9021;50.882;4.326;2023-04-15T08:27:46;23.40;71.50
17795;DHT22;9021;50.882;4.326;2023-04-15T08:30:12;22.80;70.90
17795;DHT22;9021;50.882;4.326;2023-04-15T08:32:38;22.20;73.90
17795;DHT22;9021;50.882;4.326;2023-04-15T08:35:04;21.80;74.70
17795;DHT22;9021;50.882;4.326;2023-04-15T08:37:29;21.50;75.50
17795;DHT22;9021;50.882;4.326;2023-04-15T08:39:55;21.20;75.60
17795;DHT22;9021;50.882;4.326;2023-04-15T08:42:30;20.90;76.80
17795;DHT22;9021;50.882;4.326;2023-04-15T08:44:58;20.40;76.20
17795;DHT22;9021;50.882;4.326;2023-04-15T08:47:28;20.20;77.40
17795;DHT22;9021;50.882;4.326;2023-04-15T08:49:57;20.20;77.40
17795;DHT22;9021;50.882;4.326;2023-04-15T08:52:25;20.30;78.10
17795;DHT22;9021;50.882;4.326;2023-04-15T08:54:54;19.80;80.60
17795;DHT22;9021;50.882;4.326;2023-04-15T08:57:24;19.90;78.40
17795;DHT22;9021;50.882;4.326;2023-04-15T08:59:52;19.50;82.80
17795;DHT22;9021;50.882;4.326;2023-04-15T09:02:18;19.60;80.00
17795;DHT22;9021;50.882;4.326;2023-04-15T09:04:43;19.40;83.40
17795;DHT22;9021;50.882;4.326;2023-04-15T09:07:09;19.30;80.40
17795;DHT22;9021;50.882;4.326;2023-04-15T09:09:34;19.40;81.90
17795;DHT22;9021;50.882;4.326;2023-04-15T09:12:01;19.60;83.10
17795;DHT22;9021;50.882;4.326;2023-04-15T09:14:28;19.40;85.80
17795;DHT22;9021;50.882;4.326;2023-04-15T09:17:01;19.40;81.70
17795;DHT22;9021;50.882;4.326;2023-04-15T09:19:27;19.40;81.20
17795;DHT22;9021;50.882;4.326;2023-04-15T09:21:55;19.50;85.30
17795;DHT22;9021;50.882;4.326;2023-04-15T09:24:24;19.10;84.70
17795;DHT22;9021;50.882;4.326;2023-04-15T09:26:53;19.00;81.90
17795;DHT22;9021;50.882;4.326;2023-04-15T09:29:24;18.50;82.50
17795;DHT22;9021;50.882;4.326;2023-04-15T09:31:51;18.40;78.80
17795;DHT22;9021;50.882;4.326;2023-04-15T09:34:17;18.10;83.50
17795;DHT22;9021;50.882;4.326;2023-04-15T09:39:11;18.20;82.00
17795;DHT22;9021;50.882;4.326;2023-04-15T09:41:37;18.30;78.10
17795;DHT22;9021;50.882;4.326;2023-04-15T09:44:03;18.60;83.50
17795;DHT22;9021;50.882;4.326;2023-04-15T09:46:42;18.30;79.90
17795;DHT22;9021;50.882;4.326;2023-04-15T09:49:09;18.10;82.80
17795;DHT22;9021;50.882;4.326;2023-04-15T09:51:35;18.40;82.90
17795;DHT22;9021;50.882;4.326;2023-04-15T09:54:01;18.70;80.70
17795;DHT22;9021;50.882;4.326;2023-04-15T09:56:34;19.20;80.90
17795;DHT22;9021;50.882;4.326;2023-04-15T09:59:09;18.50;82.30
17795;DHT22;9021;50.882;4.326;2023-04-15T10:01:35;18.50;78.70
17795;DHT22;9021;50.882;4.326;2023-04-15T10:04:03;18.60;82.70
17795;DHT22;9021;50.882;4.326;2023-04-15T10:06:29;18.70;83.80
17795;DHT22;9021;50.882;4.326;2023-04-15T10:08:57;18.30;83.00
17795;DHT22;9021;50.882;4.326;2023-04-15T10:11:25;18.50;83.50
17795;DHT22;9021;50.882;4.326;2023-04-15T10:13:53;19.20;83.10
17795;DHT22;9021;50.882;4.326;2023-04-15T10:16:19;19.00;81.10
17795;DHT22;9021;50.882;4.326;2023-04-15T10:18:47;19.20;83.80
17795;DHT22;9021;50.882;4.326;2023-04-15T10:21:15;19.40;83.70
17795;DHT22;9021;50.882;4.326;2023-04-15T10:23:46;19.00;78.60
17795;DHT22;9021;50.882;4.326;2023-04-15T10:26:12;18.20;82.40
17795;DHT22;9021;50.882;4.326;2023-04-15T10:28:42;18.90;78.60
17795;DHT22;9021;50.882;4.326;2023-04-15T10:31:11;18.80;78.20
17795;DHT22;9021;50.882;4.326;2023-04-15T10:33:38;18.50;79.20
17795;DHT22;9021;50.882;4.326;2023-04-15T10:36:04;18.50;82.60
17795;DHT22;9021;50.882;4.326;2023-04-15T10:38:36;19.10;83.60
17795;DHT22;9021;50.882;4.326;2023-04-15T10:43:55;19.30;80.00
17795;DHT22;9021;50.882;4.326;2023-04-15T10:46:42;19.90;78.30
17795;DHT22;9021;50.882;4.326;2023-04-15T10:49:24;19.40;76.20
17795;DHT22;9021;50.882;4.326;2023-04-15T10:51:52;19.40;79.80
17795;DHT22;9021;50.882;4.326;2023-04-15T10:57:20;20.60;79.70
17795;DHT22;9021;50.882;4.326;2023-04-15T11:00:00;22.40;74.20
17795;DHT22;9021;50.882;4.326;2023-04-15T11:02:56;22.40;70.10
17795;DHT22;9021;50.882;4.326;2023-04-15T11:05:48;24.30;66.40
17795;DHT22;9021;50.882;4.326;2023-04-15T11:08:14;26.00;66.10
17795;DHT22;9021;50.882;4.326;2023-04-15T11:20:54;28.80;60.10
17795;DHT22;9021;50.882;4.326;2023-04-15T11:23:33;30.20;59.10
17795;DHT22;9021;50.882;4.326;2023-04-15T11:26:08;30.90;57.00
17795;DHT22;9021;50.882;4.326;2023-04-15T11:28:37;30.30;56.30
17795;DHT22;9021;50.882;4.326;2023-04-15T11:33:38;31.40;55.90
17795;DHT22;9021;50.882;4.326;2023-04-15T11:36:11;31.70;53.10
17795;DHT22;9021;50.882;4.326;2023-04-15T11:38:41;31.40;53.90
17795;DHT22;9021;50.882;4.326;2023-04-15T11:41:07;31.20;52.70
17795;DHT22;9021;50.882;4.326;2023-04-15T11:43:32;31.00;52.90
17795;DHT22;9021;50.882;4.326;2023-04-15T11:46:01;30.50;49.70
17795;DHT22;9021;50.882;4.326;2023-04-15T11:48:29;31.40;50.50
17795;DHT22;9021;50.882;4.326;2023-04-15T11:50:58;30.70;51.50
17795;DHT22;9021;50.882;4.326;2023-04-15T11:56:04;30.90;50.50
17795;DHT22;9021;50.882;4.326;2023-04-15T11:58:29;30.90;48.60
17795;DHT22;9021;50.882;4.326;2023-04-15T12:00:59;30.70;46.60
17795;DHT22;9021;50.882;4.326;2023-04-15T12:03:28;30.60;47.70
17795;DHT22;9021;50.882;4.326;2023-04-15T12:08:57;31.50;50.40
17795;DHT22;9021;50.882;4.326;2023-04-15T12:11:27;31.20;50.90
17795;DHT22;9021;50.882;4.326;2023-04-15T12:16:52;30.20;52.30
17795;DHT22;9021;50.882;4.326;2023-04-15T12:19:26;30.30;50.70
17795;DHT22;9021;50.882;4.326;2023-04-15T12:21:57;30.90;50.80
17795;DHT22;9021;50.882;4.326;2023-04-15T12:24:23;30.40;50.50
17795;DHT22;9021;50.882;4.326;2023-04-15T12:26:54;30.30;50.70
17795;DHT22;9021;50.882;4.326;2023-04-15T12:29:25;30.50;50.40
17795;DHT22;9021;50.882;4.326;2023-04-15T12:31:56;30.20;50.80
17795;DHT22;9021;50.882;4.326;2023-04-15T12:34:31;29.20;51.10
17795;DHT22;9021;50.882;4.326;2023-04-15T12:36:57;29.00;50.40
17795;DHT22;9021;50.882;4.326;2023-04-15T12:39:25;29.10;49.80
17795;DHT22;9021;50.882;4.326;2023-04-15T12:41:52;29.10;52.00
17795;DHT22;9021;50.882;4.326;2023-04-15T12:44:18;29.10;51.80
17795;DHT22;9021;50.882;4.326;2023-04-15T12:46:45;29.00;52.20
17795;DHT22;9021;50.882;4.326;2023-04-15T12:49:11;28.70;49.90
17795;DHT22;9021;50.882;4.326;2023-04-15T12:51:39;28.90;51.50
17795;DHT22;9021;50.882;4.326;2023-04-15T12:54:04;28.50;50.60
17795;DHT22;9021;50.882;4.326;2023-04-15T12:56:30;28.30;50.30
17795;DHT22;9021;50.882;4.326;2023-04-15T12:58:56;28.00;51.40
17795;DHT22;9021;50.882;4.326;2023-04-15T13:01:21;27.80;50.80
17795;DHT22;9021;50.882;4.326;2023-04-15T13:03:47;27.20;51.30
17795;DHT22;9021;50.882;4.326;2023-04-15T13:06:14;26.80;52.70
17795;DHT22;9021;50.882;4.326;2023-04-15T13:08:40;26.50;52.90
17795;DHT22;9021;50.882;4.326;2023-04-15T13:11:06;26.10;52.90
17795;DHT22;9021;50.882;4.326;2023-04-15T13:13:32;25.40;54.10
17795;DHT22;9021;50.882;4.326;2023-04-15T13:15:58;25.30;55.00
17795;DHT22;9021;50.882;4.326;2023-04-15T13:18:23;25.10;55.50
17795;DHT22;9021;50.882;4.326;2023-04-15T13:20:50;25.10;55.60
17795;DHT22;9021;50.882;4.326;2023-04-15T13:23:15;24.90;55.90
17795;DHT22;9021;50.882;4.326;2023-04-15T13:25:41;24.60;57.10
17795;DHT22;9021;50.882;4.326;2023-04-15T13:28:06;24.30;57.60
17795;DHT22;9021;50.882;4.326;2023-04-15T13:30:32;23.80;57.70
17795;DHT22;9021;50.882;4.326;2023-04-15T13:32:58;23.40;57.50
17795;DHT22;9021;50.882;4.326;2023-04-15T13:35:23;23.10;55.80
17795;DHT22;9021;50.882;4.326;2023-04-15T13:37:49;22.90;56.30
17795;DHT22;9021;50.882;4.326;2023-04-15T13:40:14;22.80;56.60
17795;DHT22;9021;50.882;4.326;2023-04-15T13:42:41;22.40;57.10
17795;DHT22;9021;50.882;4.326;2023-04-15T13:45:07;22.30;56.70
17795;DHT22;9021;50.882;4.326;2023-04-15T13:47:33;22.20;57.40
17795;DHT22;9021;50.882;4.326;2023-04-15T13:49:59;22.20;57.90
17795;DHT22;9021;50.882;4.326;2023-04-15T13:52:24;22.00;57.50
17795;DHT22;9021;50.882;4.326;2023-04-15T13:54:50;22.10;58.80
17795;DHT22;9021;50.882;4.326;2023-04-15T13:57:16;22.00;58.70
17795;DHT22;9021;50.882;4.326;2023-04-15T13:59:42;22.10;58.40
17795;DHT22;9021;50.882;4.326;2023-04-15T14:02:08;21.20;62.30
17795;DHT22;9021;50.882;4.326;2023-04-15T14:04:34;21.70;59.60
17795;DHT22;9021;50.882;4.326;2023-04-15T14:06:59;21.30;64.40
17795;DHT22;9021;50.882;4.326;2023-04-15T14:09:25;21.70;60.40
17795;DHT22;9021;50.882;4.326;2023-04-15T14:11:51;21.90;60.40
17795;DHT22;9021;50.882;4.326;2023-04-15T14:14:16;22.00;60.80
17795;DHT22;9021;50.882;4.326;2023-04-15T14:16:42;22.10;60.00
17795;DHT22;9021;50.882;4.326;2023-04-15T14:19:08;22.20;61.60
17795;DHT22;9021;50.882;4.326;2023-04-15T14:21:33;22.30;61.10
17795;DHT22;9021;50.882;4.326;2023-04-15T14:23:59;22.30;60.00
17795;DHT22;9021;50.882;4.326;2023-04-15T14:26:25;22.00;65.80
17795;DHT22;9021;50.882;4.326;2023-04-15T14:28:50;21.80;60.80
17795;DHT22;9021;50.882;4.326;2023-04-15T14:31:17;21.80;60.10
17795;DHT22;9021;50.882;4.326;2023-04-15T14:33:43;21.90;60.20
17795;DHT22;9021;50.882;4.326;2023-04-15T14:36:09;21.80;59.80
17795;DHT22;9021;50.882;4.326;2023-04-15T14:38:35;21.80;60.00
17795;DHT22;9021;50.882;4.326;2023-04-15T14:41:03;21.70;63.80
17795;DHT22;9021;50.882;4.326;2023-04-15T14:43:29;21.80;60.70
17795;DHT22;9021;50.882;4.326;2023-04-15T14:45:54;21.90;60.70
17795;DHT22;9021;50.882;4.326;2023-04-15T14:48:20;22.10;59.10
17795;DHT22;9021;50.882;4.326;2023-04-15T14:50:46;22.10;60.10
17795;DHT22;9021;50.882;4.326;2023-04-15T14:53:11;22.10;61.30
17795;DHT22;9021;50.882;4.326;2023-04-15T14:55:37;22.10;61.60
17795;DHT22;9021;50.882;4.326;2023-04-15T14:58:03;22.20;64.90
17795;DHT22;9021;50.882;4.326;2023-04-15T15:00:29;22.10;62.60
17795;DHT22;9021;50.882;4.326;2023-04-15T15:05:21;22.00;61.70
17795;DHT22;9021;50.882;4.326;2023-04-15T15:10:12;21.70;62.50
17795;DHT22;9021;50.882;4.326;2023-04-15T15:12:38;21.20;63.60
17795;DHT22;9021;50.882;4.326;2023-04-15T15:15:04;20.80;67.00
17795;DHT22;9021;50.882;4.326;2023-04-15T15:17:30;20.50;69.40
17795;DHT22;9021;50.882;4.326;2023-04-15T15:19:58;20.70;66.80
17795;DHT22;9021;50.882;4.326;2023-04-15T15:22:24;20.70;68.40
17795;DHT22;9021;50.882;4.326;2023-04-15T15:24:50;20.80;68.90
17795;DHT22;9021;50.882;4.326;2023-04-15T15:27:16;20.80;74.70
17795;DHT22;9021;50.882;4.326;2023-04-15T15:29:41;20.70;70.30
17795;DHT22;9021;50.882;4.326;2023-04-15T15:32:07;21.00;73.00
17795;DHT22;9021;50.882;4.326;2023-04-15T15:34:33;20.80;70.90
17795;DHT22;9021;50.882;4.326;2023-04-15T15:36:59;20.60;74.70
17795;DHT22;9021;50.882;4.326;2023-04-15T15:39:25;20.40;75.00
17795;DHT22;9021;50.882;4.326;2023-04-15T15:44:17;20.40;72.60
17795;DHT22;9021;50.882;4.326;2023-04-15T15:46:42;20.30;79.40
17795;DHT22;9021;50.882;4.326;2023-04-15T15:49:08;19.30;79.60
17795;DHT22;9021;50.882;4.326;2023-04-15T15:51:34;20.10;78.50
17795;DHT22;9021;50.882;4.326;2023-04-15T15:53:59;19.50;78.60
17795;DHT22;9021;50.882;4.326;2023-04-15T15:56:25;19.40;75.50
17795;DHT22;9021;50.882;4.326;2023-04-15T15:58:51;19.60;78.50
17795;DHT22;9021;50.882;4.326;2023-04-15T16:01:17;19.30;75.20
17795;DHT22;9021;50.882;4.326;2023-04-15T16:03:42;19.40;75.60
17795;DHT22;9021;50.882;4.326;2023-04-15T16:06:08;19.30;78.70
17795;DHT22;9021;50.882;4.326;2023-04-15T16:08:33;19.50;80.30
17795;DHT22;9021;50.882;4.326;2023-04-15T16:10:59;19.10;79.40
17795;DHT22;9021;50.882;4.326;2023-04-15T16:13:25;19.70;81.10
17795;DHT22;9021;50.882;4.326;2023-04-15T16:15:50;18.70;77.90
17795;DHT22;9021;50.882;4.326;2023-04-15T16:18:17;18.20;82.30
17795;DHT22;9021;50.882;4.326;2023-04-15T16:20:42;18.30;83.70
17795;DHT22;9021;50.882;4.326;2023-04-15T16:23:12;17.90;83.10
17795;DHT22;9021;50.882;4.326;2023-04-15T16:25:38;18.20;81.50
17795;DHT22;9021;50.882;4.326;2023-04-15T16:28:05;17.90;82.50
17795;DHT22;9021;50.882;4.326;2023-04-15T16:30:30;18.20;78.80
17795;DHT22;9021;50.882;4.326;2023-04-15T16:32:56;18.10;82.10
17795;DHT22;9021;50.882;4.326;2023-04-15T16:35:22;17.90;82.80
17795;DHT22;9021;50.882;4.326;2023-04-15T16:37:47;18.20;83.30
17795;DHT22;9021;50.882;4.326;2023-04-15T16:42:39;18.00;78.60
17795;DHT22;9021;50.882;4.326;2023-04-15T16:45:08;18.10;79.00
17795;DHT22;9021;50.882;4.326;2023-04-15T16:47:34;18.10;78.70
17795;DHT22;9021;50.882;4.326;2023-04-15T16:49:59;18.20;79.10
17795;DHT22;9021;50.882;4.326;2023-04-15T16:52:26;18.50;82.30
17795;DHT22;9021;50.882;4.326;2023-04-15T16:54:52;18.30;78.20
17795;DHT22;9021;50.882;4.326;2023-04-15T16:57:17;18.40;82.20
17795;DHT22;9021;50.882;4.326;2023-04-15T16:59:43;18.30;84.40
17795;DHT22;9021;50.882;4.326;2023-04-15T17:02:11;18.20;83.20
17795;DHT22;9021;50.882;4.326;2023-04-15T17:04:37;18.30;85.10
17795;DHT22;9021;50.882;4.326;2023-04-15T17:09:31;17.80;79.50
17795;DHT22;9021;50.882;4.326;2023-04-15T17:11:56;17.90;82.60
17795;DHT22;9021;50.882;4.326;2023-04-15T17:14:23;17.60;79.70
17795;DHT22;9021;50.882;4.326;2023-04-15T17:16:48;17.70;82.80
17795;DHT22;9021;50.882;4.326;2023-04-15T17:19:14;17.50;83.80
17795;DHT22;9021;50.882;4.326;2023-04-15T17:21:39;17.40;81.80
17795;DHT22;9021;50.882;4.326;2023-04-15T17:24:05;16.50;83.90
17795;DHT22;9021;50.882;4.326;2023-04-15T17:26:31;17.20;81.20
17795;DHT22;9021;50.882;4.326;2023-04-15T17:28:57;17.00;87.00
17795;DHT22;9021;50.882;4.326;2023-04-15T17:31:22;16.90;85.60
17795;DHT22;9021;50.882;4.326;2023-04-15T17:33:48;16.40;86.20
17795;DHT22;9021;50.882;4.326;2023-04-15T17:36:14;16.30;84.30
17795;DHT22;9021;50.882;4.326;2023-04-15T17:38:39;16.60;87.10
17795;DHT22;9021;50.882;4.326;2023-04-15T17:41:05;16.30;89.60